Teterboro Airport
KTEB : now visible

Airfield :











YOU CAN JOIN US ON...

 
LOGIN :

Register | Disclaimer

   EN    FR    IT 

 









Legend :    VFR   Marginal VFR   IFR   Intensive IFR   Very Intensive IFR
Visi :
Ceiling :
>= 8 km
>= 3000ft
5 to 8 km
1000 to 3000 ft
1500m to 5 km
500 to 1000 ft
800 to 1500m
200 to 500 ft
< 800m
< 200 ft
Symbols :   Thunderstorms  Fog  Heavy snow  Heavy precipitations  Wind > 20 kt






- Airport Elevation : 9 ft


KTEB - Teterboro

CURRENT METAR :
  • 240928Z 33005KT 10SM -RA FEW055 OVC070 14/13 A3000 RMK AO2 P0004 T01390133

EXPIRED METARs :
  • 240851Z 00000KT 5SM -RA BR FEW009 OVC024 14/13 A3000 RMK AO2 DZE21RAB21 SLP159 P0034 60037 T01390133 53009
  • 240751Z 34004KT 5SM -DZ BR FEW009 OVC024 14/13 A3000 RMK AO2 RAB0655E47DZB47 SLP158 P0002 T01440133
  • 240651Z 31007KT 10SM FEW021 OVC044 16/14 A2998 RMK AO2 DZE47 SLP151 P0001 T01560139

TAF KTEB
Valid from the 24 at 09:00 until the 25 at 12:00 UTC


240831Z 2409/2512 31006KT P6SM -SHRA OVC035
TEMPO 2409/2412 BKN010
FM241200 31007KT P6SM SCT025 OVC035
FM241800 27007KT P6SM SCT050 SCT250
FM250000 VRB03KT P6SM SCT250
KZNY FIR / North America



MET'MAP, your aeronautical weather chart ! - Copyright ORBIFLY December 2007 - Disclaimer

ORBIFLY MET'MAP TEAM :

Programming & Development : Alexandra Zaïnal
Concept & original design : Baudouin d'Aumeries
Assistance for programming : Marc-Olivier Méhu
Technical & hardware support : Manuel Goepfert

Contact : metmap@orbifly.com




SOURCES & CREDITS :

   NOAA       Earth
Advisory